INFORMACIÓN METAR y TAF
METAR FOR LBSF
ADDS - METARS form results

(0851 UTC 15 April 2021)
Data provider http://aviationweather.gov/metar/data/
 
METAR text: LBSF 150830Z 28013KT 9999 SCT038 BKN044 05/M01 Q1019 NOSIG
Conditions at: LBSF (SOFIA , BG) observed 0830 UTC 15 April 2021
Temperature: 5.0°C (41°F)
Dewpoint: -1.0°C (30°F) [RH = 65%]
Pressure (altimeter): 30.09 inches Hg (1019.0 mb)
Winds: from the W (280 degrees) at 15 MPH (13 knots; 6.7 m/s)
Visibility: 6 or more miles (10+ km)
Ceiling: 4400 feet AGL
Clouds: scattered clouds at 3800 feet AGL
broken clouds at 4400 feet AGL
Weather: no significant weather observed at this time

METAR text: LBSF 150800Z 27013KT 9999 FEW029 BKN044 05/M02 Q1019 NOSIG
Conditions at: LBSF (SOFIA , BG) observed 0800 UTC 15 April 2021
Temperature: 5.0°C (41°F)
Dewpoint: -2.0°C (28°F) [RH = 60%]
Pressure (altimeter): 30.09 inches Hg (1019.0 mb)
Winds: from the W (270 degrees) at 15 MPH (13 knots; 6.7 m/s)
Visibility: 6 or more miles (10+ km)
Ceiling: 4400 feet AGL
Clouds: few clouds at 2900 feet AGL
broken clouds at 4400 feet AGL
Weather: no significant weather observed at this time

Forecast for: LBSF (SOFIA , BG)
Text: TAF LBSF 150500Z 1506/1606 28012KT 9999 SCT030 BKN050
Forecast period: 0600 UTC 15 April 2021 to 0600 UTC 16 April 2021
Forecast type: FROM: standard forecast or significant change
Winds: from the W (280 degrees) at 14 MPH (12 knots; 6.2 m/s)
Visibility: 6 or more miles (10+ km)
Ceiling: 5000 feet AGL
Clouds: scattered clouds at 3000 feet AGL
broken clouds at 5000 feet AGL
Weather: no significant weather forecast for this period

 MAPA DE AEROPUERTO

 INFORMACIÓN DE PISTA
Pista 09 Longitud 9186 ft Ancho 147 ft
Elevación 1739 ft Umbral desplazado 0 ft Rumbo de pista 95
Pista 27 Longitud 9186 ft Ancho 147 ft
Elevación 1742 ft Umbral desplazado 0 ft Rumbo de pista 275

 FRECUANCIAS DEL AEROPUERTO
Tipo APP Nombre APP Frecuencia 123.7 MHZ
Tipo ATIS Nombre ATIS Frecuencia 124.05 MHZ
Tipo TWR Nombre TWR Frecuencia 118.1 MHZ

 RADIO AYUDAS DEL AEROPUERTO
Tipo NDB Nombre Bozhourishte Frecuencia 312 KHZ
Tipo NDB Nombre Sofia Frecuencia 375 KHZ
Tipo NDB Nombre Sofia Frecuencia 335 KHZ
Tipo NDB Nombre Sofia Frecuencia 529 KHZ
Tipo VOR-DME Nombre Sofia Frecuencia 112600 KHZ
Tipo NDB Nombre Sofia Frecuencia 350 KHZ



Powered by Virtual Airlines Manager [v2.6.2]